Time,TemperatureF,DewpointF,PressureIn,WindDirection,WindDirectionDegrees,WindSpeedMPH,WindSpeedGustMPH,Humidity,HourlyPrecipIn,Conditions,Clouds,dailyrainin,SoftwareType,DateUTC
2013-12-03 00:22:00,52.0,39.0,29.96,ENE,67,3.0,4.0,61,0.00,,,0.00,,2013-12-03 07:22:00,
2013-12-03 00:52:00,52.0,39.0,29.96,NNE,22,3.0,4.0,60,0.00,,,0.00,,2013-12-03 07:52:00,
2013-12-03 01:22:00,51.0,40.0,29.95,ENE,67,1.0,2.0,65,0.00,,,0.00,,2013-12-03 08:22:00,
2013-12-03 01:53:00,50.0,40.0,29.94,ENE,67,2.0,3.0,68,0.00,,,0.00,,2013-12-03 08:53:00,
2013-12-03 02:21:00,51.0,39.0,29.92,ENE,67,3.0,4.0,64,0.00,,,0.00,,2013-12-03 09:21:00,
2013-12-03 02:54:00,52.0,38.0,29.91,ESE,112,2.0,3.0,58,0.00,,,0.00,,2013-12-03 09:54:00,
2013-12-03 03:23:00,53.0,38.0,29.92,East,90,2.0,5.0,57,0.00,,,0.00,,2013-12-03 10:23:00,
2013-12-03 03:53:00,54.0,37.0,29.92,East,90,2.0,3.0,53,0.00,,,0.00,,2013-12-03 10:53:00,
2013-12-03 04:22:00,51.0,38.0,29.91,East,90,1.0,2.0,61,0.00,,,0.00,,2013-12-03 11:22:00,
2013-12-03 04:52:00,50.0,36.0,29.90,East,90,2.0,5.0,58,0.00,,,0.00,,2013-12-03 11:52:00,
2013-12-03 05:21:00,51.0,34.0,29.90,East,90,3.0,8.0,52,0.00,,,0.00,,2013-12-03 12:21:00,
2013-12-03 05:52:00,51.0,34.0,29.90,SE,135,1.0,3.0,51,0.00,,,0.00,,2013-12-03 12:52:00,
2013-12-03 06:21:00,51.0,34.0,29.91,NE,45,3.0,5.0,51,0.00,,,0.00,,2013-12-03 13:21:00,
2013-12-03 06:52:00,52.0,32.0,29.90,East,90,4.0,6.0,47,0.00,,,0.00,,2013-12-03 13:52:00,
2013-12-03 07:22:00,54.0,33.0,29.90,East,90,4.0,7.0,45,0.00,,,0.00,,2013-12-03 14:22:00,
2013-12-03 07:52:00,55.0,32.0,29.90,East,90,4.0,8.0,41,0.00,,,0.00,,2013-12-03 14:52:00,
2013-12-03 09:22:00,61.0,32.0,29.91,SE,135,2.0,5.0,34,0.00,,,0.00,,2013-12-03 16:22:00,
2013-12-03 09:52:00,62.0,27.0,29.92,ESE,112,3.0,6.0,26,0.00,,,0.00,,2013-12-03 16:52:00,
2013-12-03 10:22:00,64.0,26.0,29.93,SE,135,4.0,8.0,24,0.00,,,0.00,,2013-12-03 17:22:00,
2013-12-03 10:52:00,65.0,25.0,29.92,SSE,157,4.0,10.0,22,0.00,,,0.00,,2013-12-03 17:52:00,
2013-12-03 11:22:00,65.0,25.0,29.92,South,180,3.0,7.0,22,0.00,,,0.00,,2013-12-03 18:22:00,
2013-12-03 11:53:00,66.0,25.0,29.90,ESE,112,3.0,7.0,21,0.00,,,0.00,,2013-12-03 18:53:00,
2013-12-03 12:21:00,67.0,25.0,29.88,SE,135,5.0,8.0,20,0.00,,,0.00,,2013-12-03 19:21:00,
2013-12-03 12:52:00,68.0,22.0,29.86,East,90,4.0,7.0,17,0.00,,,0.00,,2013-12-03 19:52:00,
2013-12-03 13:22:00,69.0,22.0,29.84,ESE,112,1.0,5.0,17,0.00,,,0.00,,2013-12-03 20:22:00,
2013-12-03 13:53:00,70.0,25.0,29.83,SSE,157,3.0,5.0,18,0.00,,,0.00,,2013-12-03 20:53:00,
2013-12-03 14:21:00,71.0,28.0,29.81,NNE,22,2.0,6.0,20,0.00,,,0.00,,2013-12-03 21:21:00,
2013-12-03 14:54:00,71.0,31.0,29.81,NW,315,5.0,9.0,23,0.00,,,0.00,,2013-12-03 21:54:00,
2013-12-03 15:22:00,71.0,32.0,29.81,West,270,3.0,8.0,24,0.00,,,0.00,,2013-12-03 22:22:00,
2013-12-03 15:53:00,71.0,31.0,29.80,WSW,247,2.0,6.0,23,0.00,,,0.00,,2013-12-03 22:53:00,
2013-12-03 16:22:00,70.0,34.0,29.80,SW,225,0.0,1.0,26,0.00,,,0.00,,2013-12-03 23:22:00,
2013-12-03 16:52:00,70.0,34.0,29.80,WNW,292,1.0,4.0,27,0.00,,,0.00,,2013-12-03 23:52:00,
2013-12-03 17:22:00,68.0,35.0,29.79,NW,315,1.0,2.0,29,0.00,,,0.00,,2013-12-04 00:22:00,
2013-12-03 17:52:00,65.0,37.0,29.79,NNE,22,1.0,3.0,35,0.00,,,0.00,,2013-12-04 00:52:00,
2013-12-03 18:21:00,64.0,39.0,29.80,North,0,2.0,4.0,40,0.00,,,0.00,,2013-12-04 01:21:00,
2013-12-03 18:52:00,63.0,40.0,29.80,NNE,22,1.0,2.0,43,0.00,,,0.00,,2013-12-04 01:52:00,
2013-12-03 19:21:00,61.0,41.0,29.80,NE,45,1.0,3.0,47,0.00,,,0.00,,2013-12-04 02:21:00,
2013-12-03 19:52:00,61.0,42.0,29.80,NNE,22,2.0,4.0,49,0.00,,,0.00,,2013-12-04 02:52:00,
2013-12-03 20:21:00,61.0,41.0,29.80,NE,45,3.0,5.0,48,0.00,,,0.00,,2013-12-04 03:21:00,
2013-12-03 20:54:00,63.0,42.0,29.80,ESE,112,2.0,5.0,46,0.00,,,0.00,,2013-12-04 03:54:00,
2013-12-03 21:13:00,62.0,42.0,29.81,East,90,2.0,5.0,47,0.00,,,0.00,,2013-12-04 04:13:00,
2013-12-03 21:23:00,63.0,42.0,29.81,SSE,157,2.0,5.0,46,0.00,,,0.00,,2013-12-04 04:23:00,
2013-12-03 21:52:00,59.0,41.0,29.82,SSW,202,1.0,5.0,52,0.00,,,0.00,,2013-12-04 04:52:00,
2013-12-03 22:22:00,60.0,42.0,29.82,East,90,5.0,9.0,51,0.00,,,0.00,,2013-12-04 05:22:00,
2013-12-03 22:53:00,61.0,42.0,29.82,ESE,112,2.0,7.0,49,0.00,,,0.00,,2013-12-04 05:53:00,
2013-12-03 23:22:00,60.0,42.0,29.83,East,90,3.0,7.0,51,0.00,,,0.00,,2013-12-04 06:22:00,
2013-12-03 23:52:00,60.0,40.0,29.83,East,90,5.0,8.0,48,0.00,,,0.00,,2013-12-04 06:52:00,